Terminal Aerodrome Forecast
Issued by NWS

Home | Current Version | Previous Version | Text Only | Print | Product List | Glossary On
Versions: 1 2 3 4 5 6 7 8 9 10 11 12 13 14 15 16 17 18 19 20 21 22
000
FTUS43 KGRR 042340
TAFLAN
TAF
KLAN 042340Z 0500/0524 01010G18KT P6SM -RA OVC009
      TEMPO 0500/0502 2SM RA BR
     FM050200 36009KT P6SM -RA OVC015
     FM050700 36008KT P6SM OVC015
     FM051100 01011KT P6SM BKN080
     FM052100 36010KT P6SM BKN100=

USA.gov is the U.S. government's official web portal to all federal, state and local government web resources and services.